Time;durP1;ratioP1;P1;durP2;ratioP2;P2;SDS_P1;SDS_P2;PMS_P1;PMS_P2;Temp;Humidity;BMP_temperature;BMP_pressure;BME280_temperature;BME280_humidity;BME280_pressure;Samples;Min_cycle;Max_cycle;Signal;HPM_P1;HPM_P2
2022/06/22 00:00:28;;;;;;;12.27;6.35;;;14.80;99.90;;;;;;5061701;28;20146;-76
2022/06/22 00:02:55;;;;;;;10.20;6.53;;;14.70;99.90;;;;;;5070449;28;20105;-75
2022/06/22 00:05:35;;;;;;;10.85;6.60;;;14.70;99.90;;;;;;5058721;28;20075;-75
2022/06/22 00:08:06;;;;;;;8.15;6.32;;;14.70;99.90;;;;;;5063271;28;20091;-75
2022/06/22 00:10:35;;;;;;;12.70;6.90;;;14.70;99.90;;;;;;5069223;28;20032;-75
2022/06/22 00:13:01;;;;;;;10.32;6.97;;;14.70;99.90;;;;;;5033827;28;20049;-75
2022/06/22 00:15:41;;;;;;;9.35;6.68;;;14.60;99.90;;;;;;5073038;28;20046;-75
2022/06/22 00:18:39;;;;;;;10.38;6.32;;;14.60;99.90;;;;;;5050491;28;20362;-75
2022/06/22 00:21:14;;;;;;;11.73;6.70;;;14.60;99.90;;;;;;5051338;28;20490;-75
2022/06/22 00:23:42;;;;;;;13.52;7.57;;;14.80;99.90;;;;;;5071602;28;20127;-75
2022/06/22 00:26:20;;;;;;;12.10;7.10;;;14.50;99.90;;;;;;5064439;28;20040;-75
2022/06/22 00:29:04;;;;;;;9.50;6.28;;;14.50;99.90;;;;;;5054457;28;20037;-75
2022/06/22 00:32:02;;;;;;;10.35;6.20;;;14.40;99.90;;;;;;5054869;28;20098;-75
2022/06/22 00:34:33;;;;;;;8.40;5.97;;;14.30;99.90;;;;;;5053329;28;20049;-75
2022/06/22 00:37:18;;;;;;;9.75;6.30;;;14.20;99.90;;;;;;5050506;28;20072;-75
2022/06/22 00:39:50;;;;;;;8.07;6.00;;;14.20;99.90;;;;;;5062240;28;20066;-76
2022/06/22 00:42:30;;;;;;;;;;;14.20;99.90;;;;;;5057246;28;20516;-75
2022/06/22 00:45:12;;;;;;;8.57;5.55;;;14.10;99.90;;;;;;5059538;28;19939;-75
2022/06/22 00:48:26;;;;;;;10.63;6.65;;;14.00;99.90;;;;;;5068986;28;20055;-75
2022/06/22 00:51:06;;;;;;;11.48;6.82;;;14.00;99.90;;;;;;5047836;28;20057;-75
2022/06/22 00:53:40;;;;;;;10.85;6.90;;;14.00;99.90;;;;;;5047515;28;20074;-75
2022/06/22 00:56:21;;;;;;;8.82;6.25;;;13.90;99.90;;;;;;5055526;28;20535;-75
2022/06/22 00:58:53;;;;;;;10.13;5.60;;;13.90;99.90;;;;;;5055056;28;20033;-75
2022/06/22 01:01:30;;;;;;;10.00;6.05;;;13.80;99.90;;;;;;5055361;28;20040;-75
2022/06/22 01:04:17;;;;;;;8.77;6.05;;;13.80;99.90;;;;;;5051419;28;20505;-75
2022/06/22 01:06:46;;;;;;;8.90;5.70;;;13.70;99.90;;;;;;5057730;28;20494;-75
2022/06/22 01:09:16;;;;;;;9.63;5.95;;;13.60;99.90;;;;;;5060915;28;20516;-75
2022/06/22 01:14:46;;;;;;;9.65;6.05;;;13.60;99.90;;;;;;5058942;28;20420;-75
2022/06/22 01:17:34;;;;;;;8.50;6.38;;;13.60;99.90;;;;;;5066244;28;20044;-74
2022/06/22 01:20:43;;;;;;;10.30;6.35;;;13.50;99.90;;;;;;5068595;28;20044;-74
2022/06/22 01:23:24;;;;;;;8.38;6.65;;;13.50;99.90;;;;;;4998501;28;20531;-74
2022/06/22 01:25:54;;;;;;;10.73;7.05;;;13.40;99.90;;;;;;5036648;28;20052;-74
2022/06/22 01:28:21;;;;;;;10.50;6.63;;;13.40;99.90;;;;;;5069477;28;20046;-74
2022/06/22 01:30:53;;;;;;;11.15;6.53;;;13.60;99.90;;;;;;5061747;28;20037;-74
2022/06/22 01:33:29;;;;;;;10.30;6.80;;;13.30;99.90;;;;;;5062262;28;20135;-74
2022/06/22 01:35:58;;;;;;;12.25;7.38;;;13.30;99.90;;;;;;5044785;28;20044;-74
2022/06/22 01:38:30;;;;;;;11.60;7.00;;;13.40;99.90;;;;;;5063133;28;20086;-74
2022/06/22 01:41:18;;;;;;;10.13;6.80;;;13.30;99.90;;;;;;5063865;28;20094;-74
2022/06/22 01:44:14;;;;;;;9.25;6.97;;;13.20;99.90;;;;;;5060351;28;20119;-74
2022/06/22 01:46:39;;;;;;;11.25;7.15;;;13.30;99.90;;;;;;5054845;28;20136;-74
2022/06/22 01:49:30;;;;;;;12.18;6.97;;;13.30;99.90;;;;;;5066008;28;20246;-74
2022/06/22 01:52:06;;;;;;;11.43;7.10;;;13.30;99.90;;;;;;5050047;28;20033;-74
2022/06/22 01:54:44;;;;;;;9.05;6.78;;;13.10;99.90;;;;;;5062728;28;20493;-74
2022/06/22 01:57:41;;;;;;;9.60;6.82;;;13.10;99.90;;;;;;5060932;28;20515;-74
2022/06/22 02:00:16;;;;;;;9.77;7.10;;;13.10;99.90;;;;;;5046479;28;20132;-74
2022/06/22 02:02:49;;;;;;;10.70;7.05;;;13.00;99.90;;;;;;5058080;28;20465;-75
2022/06/22 02:05:32;;;;;;;9.68;6.93;;;13.00;99.90;;;;;;5045507;28;20037;-75
2022/06/22 02:08:03;;;;;;;10.68;7.13;;;13.00;99.90;;;;;;5067239;28;20052;-75
2022/06/22 02:10:32;;;;;;;9.73;6.95;;;12.90;99.90;;;;;;5060181;28;20048;-75
2022/06/22 02:13:28;;;;;;;9.43;6.88;;;12.80;99.90;;;;;;5065114;28;20135;-75
2022/06/22 02:16:05;;;;;;;10.20;7.07;;;12.80;99.90;;;;;;5014107;28;20143;-74
2022/06/22 02:18:43;;;;;;;9.70;6.88;;;12.70;99.90;;;;;;5057243;28;20106;-74
2022/06/22 02:21:25;;;;;;;10.02;6.70;;;12.70;99.90;;;;;;5054100;28;20047;-74
2022/06/22 02:23:59;;;;;;;;;;;12.70;99.90;;;;;;5046617;28;20037;-74
2022/06/22 02:26:33;;;;;;;9.45;6.43;;;12.60;99.90;;;;;;5055748;28;19975;-74
2022/06/22 02:28:59;;;;;;;8.57;6.95;;;12.50;99.90;;;;;;5063151;28;20037;-74
2022/06/22 02:31:25;;;;;;;10.25;6.72;;;12.50;99.90;;;;;;5050037;28;20506;-74
2022/06/22 02:33:55;;;;;;;8.93;6.45;;;12.40;99.90;;;;;;5061498;28;20047;-74
2022/06/22 02:36:28;;;;;;;7.07;5.43;;;12.40;99.90;;;;;;5032105;28;20512;-74
2022/06/22 02:38:56;;;;;;;8.73;6.22;;;12.30;99.90;;;;;;5060122;28;20461;-74
2022/06/22 02:44:33;;;;;;;9.75;6.88;;;12.50;99.90;;;;;;5058797;28;20052;-74
2022/06/22 02:47:22;;;;;;;9.27;7.10;;;12.20;99.90;;;;;;5055079;28;20408;-74
2022/06/22 02:49:50;;;;;;;11.20;7.47;;;12.20;99.90;;;;;;5067064;28;20123;-74
2022/06/22 02:52:17;;;;;;;10.85;7.25;;;12.20;99.90;;;;;;5063865;28;20094;-74
2022/06/22 02:54:55;;;;;;;11.77;7.10;;;12.20;99.90;;;;;;5061328;28;20072;-74
2022/06/22 02:57:33;;;;;;;10.60;7.43;;;12.40;99.90;;;;;;5048973;28;20581;-74
2022/06/22 02:59:59;;;;;;;11.77;6.95;;;12.10;99.90;;;;;;5056544;28;20125;-74
2022/06/22 03:02:26;;;;;;;8.00;6.05;;;12.00;99.90;;;;;;5067344;28;20032;-74
2022/06/22 03:04:56;;;;;;;6.90;5.70;;;12.00;99.90;;;;;;5040906;28;20381;-74
2022/06/22 03:07:22;;;;;;;9.90;6.68;;;12.00;99.90;;;;;;5059691;28;20546;-74
2022/06/22 03:09:49;;;;;;;10.20;6.63;;;11.90;99.90;;;;;;5059204;28;20090;-74
2022/06/22 03:12:15;;;;;;;12.02;7.68;;;11.90;99.90;;;;;;5059367;28;20037;-74
2022/06/22 03:14:55;;;;;;;12.40;8.05;;;11.90;99.90;;;;;;5059720;28;20452;-74
2022/06/22 03:17:39;;;;;;;9.63;7.28;;;11.90;99.90;;;;;;5065197;28;20519;-74
2022/06/22 03:20:11;;;;;;;12.45;8.50;;;12.20;99.90;;;;;;5068719;28;20090;-74
2022/06/22 03:22:51;;;;;;;11.18;7.70;;;11.90;99.90;;;;;;5065460;28;20048;-74
2022/06/22 03:25:36;;;;;;;11.07;7.55;;;11.90;99.90;;;;;;5064651;28;20135;-74
2022/06/22 03:28:08;;;;;;;11.07;7.45;;;11.90;99.90;;;;;;5060828;28;20051;-74
2022/06/22 03:31:02;;;;;;;10.25;7.45;;;11.80;99.90;;;;;;5067652;28;20037;-74
2022/06/22 03:33:40;;;;;;;9.63;7.32;;;11.90;99.90;;;;;;5058931;28;20047;-74
2022/06/22 03:36:23;;;;;;;9.25;7.20;;;11.80;99.90;;;;;;5061831;28;20458;-75
2022/06/22 03:38:55;;;;;;;9.98;7.55;;;12.00;99.90;;;;;;5063389;28;20052;-74
2022/06/22 03:41:26;;;;;;;8.95;7.50;;;11.80;99.90;;;;;;5045296;28;20179;-74
2022/06/22 03:43:58;;;;;;;10.93;6.87;;;11.80;99.90;;;;;;5062122;28;20493;-74
2022/06/22 03:46:41;;;;;;;8.27;7.20;;;11.70;99.90;;;;;;5059232;28;20032;-74
2022/06/22 03:49:17;;;;;;;9.68;7.45;;;11.70;99.90;;;;;;5070123;28;20520;-74
2022/06/22 03:52:12;;;;;;;11.30;8.30;;;11.80;99.90;;;;;;5049100;28;20116;-74
2022/06/22 03:54:55;;;;;;;13.57;8.52;;;11.80;99.90;;;;;;5041349;28;20096;-75
2022/06/22 03:57:27;;;;;;;12.80;9.00;;;11.80;99.90;;;;;;5060221;28;20547;-75
2022/06/22 03:59:55;;;;;;;12.00;8.60;;;12.00;99.90;;;;;;5056369;28;20037;-74
2022/06/22 04:02:23;;;;;;;12.18;8.02;;;12.50;99.90;;;;;;5057367;28;20415;-74
2022/06/22 04:04:54;;;;;;;11.65;8.35;;;12.10;99.90;;;;;;5062129;28;20519;-74
2022/06/22 04:07:21;;;;;;;10.95;8.27;;;12.00;99.90;;;;;;5069489;28;20525;-74
2022/06/22 04:09:55;;;;;;;12.32;8.20;;;12.10;99.90;;;;;;5067389;28;20465;-74
2022/06/22 04:12:36;;;;;;;11.90;8.77;;;12.10;99.90;;;;;;5054169;28;20051;-74
2022/06/22 04:15:11;;;;;;;10.60;8.70;;;12.10;99.90;;;;;;5067808;28;20051;-74
2022/06/22 04:17:53;;;;;;;12.02;9.20;;;12.10;99.90;;;;;;5042418;28;20052;-74
2022/06/22 04:20:19;;;;;;;;;;;12.20;99.90;;;;;;5064048;28;20440;-74
2022/06/22 04:22:50;;;;;;;11.23;9.05;;;12.20;99.90;;;;;;5052997;28;19925;-75
2022/06/22 04:25:24;;;;;;;14.02;9.25;;;12.20;99.90;;;;;;5064781;28;20070;-75
2022/06/22 04:27:52;;;;;;;11.60;8.50;;;12.30;99.90;;;;;;5050650;28;20470;-75
2022/06/22 04:30:26;;;;;;;13.68;8.65;;;12.30;99.90;;;;;;5067513;28;20044;-75
2022/06/22 04:33:05;;;;;;;11.52;8.85;;;12.30;99.90;;;;;;5068212;28;20508;-75
2022/06/22 04:35:43;;;;;;;12.82;9.15;;;12.30;99.90;;;;;;5059559;28;20047;-75
2022/06/22 04:38:18;;;;;;;12.60;9.27;;;12.30;99.90;;;;;;5058338;28;20564;-75
2022/06/22 04:40:57;;;;;;;12.40;9.63;;;12.40;99.90;;;;;;5067946;28;20417;-75
2022/06/22 04:43:24;;;;;;;15.13;9.30;;;12.40;99.90;;;;;;5047871;28;20044;-75
2022/06/22 04:45:52;;;;;;;12.32;9.23;;;12.40;99.90;;;;;;5051895;28;20074;-75
2022/06/22 04:48:25;;;;;;;14.30;8.85;;;12.40;99.90;;;;;;5066024;28;20045;-75
2022/06/22 04:50:57;;;;;;;15.65;9.90;;;12.40;99.90;;;;;;5043584;28;20051;-75
2022/06/22 04:53:26;;;;;;;12.70;9.40;;;12.40;99.90;;;;;;5058056;28;20044;-75
2022/06/22 04:55:52;;;;;;;15.30;10.13;;;12.40;99.90;;;;;;5057919;28;20493;-75
2022/06/22 04:58:26;;;;;;;12.55;9.98;;;12.50;99.90;;;;;;5059240;28;20040;-75
2022/06/22 05:00:53;;;;;;;12.75;10.13;;;12.40;99.90;;;;;;5054866;28;20118;-75
2022/06/22 05:03:18;;;;;;;12.27;9.45;;;12.70;99.90;;;;;;5065787;28;20064;-75
2022/06/22 05:05:44;;;;;;;12.45;10.15;;;12.40;99.90;;;;;;5052285;28;20115;-75
2022/06/22 05:08:21;;;;;;;14.55;10.63;;;12.50;99.90;;;;;;5062678;28;20048;-75
2022/06/22 05:10:54;;;;;;;14.10;10.10;;;12.40;99.90;;;;;;5055740;28;20033;-75
2022/06/22 05:13:27;;;;;;;13.65;10.25;;;12.40;99.90;;;;;;5069718;28;20048;-75
2022/06/22 05:15:57;;;;;;;14.80;10.07;;;12.40;99.90;;;;;;5047752;28;20057;-75
2022/06/22 05:18:36;;;;;;;13.50;9.88;;;12.50;99.90;;;;;;5063487;28;20405;-75
2022/06/22 05:21:10;;;;;;;13.68;9.93;;;12.50;99.90;;;;;;5053788;28;20072;-75
2022/06/22 05:23:36;;;;;;;15.90;10.52;;;12.50;99.90;;;;;;5064875;28;20051;-75
2022/06/22 05:26:05;;;;;;;16.80;11.20;;;12.50;99.90;;;;;;5055939;28;20029;-75
2022/06/22 05:28:33;;;;;;;16.02;10.20;;;12.60;99.90;;;;;;5055678;28;20043;-75
2022/06/22 05:31:07;;;;;;;12.52;10.05;;;12.60;99.90;;;;;;5059485;28;20091;-75
2022/06/22 05:33:38;;;;;;;14.55;10.20;;;12.60;99.90;;;;;;5058103;28;20040;-75
2022/06/22 05:36:10;;;;;;;15.73;11.57;;;12.80;99.90;;;;;;5038634;28;20091;-75
2022/06/22 05:38:39;;;;;;;15.57;11.70;;;12.90;99.90;;;;;;5061977;28;20044;-75
2022/06/22 05:41:07;;;;;;;15.25;11.27;;;12.70;99.90;;;;;;5061052;28;20048;-75
2022/06/22 05:43:35;;;;;;;18.65;12.07;;;12.80;99.90;;;;;;5056721;28;20093;-75
2022/06/22 05:46:05;;;;;;;20.38;12.43;;;12.90;99.90;;;;;;5050703;28;20089;-75
2022/06/22 05:48:34;;;;;;;16.00;12.73;;;12.90;99.90;;;;;;5055614;28;20405;-75
2022/06/22 05:51:12;;;;;;;20.40;13.73;;;13.00;99.90;;;;;;5058908;28;20045;-75
2022/06/22 05:53:45;;;;;;;19.73;13.32;;;13.10;99.90;;;;;;5059086;28;20068;-75
2022/06/22 05:56:33;;;;;;;19.25;13.90;;;13.20;99.90;;;;;;5061012;28;20048;-75
2022/06/22 05:59:08;;;;;;;22.02;14.73;;;13.20;99.90;;;;;;5057858;28;20080;-75
2022/06/22 06:01:46;;;;;;;20.15;14.30;;;13.30;99.90;;;;;;5051194;28;20049;-75
2022/06/22 06:04:23;;;;;;;21.60;13.70;;;13.40;99.90;;;;;;5053607;28;20045;-75
2022/06/22 06:06:52;;;;;;;20.20;13.65;;;13.40;99.90;;;;;;5067848;28;20094;-75
2022/06/22 06:09:22;;;;;;;17.00;13.93;;;13.50;99.90;;;;;;5064571;28;20488;-75
2022/06/22 06:12:04;;;;;;;18.45;13.75;;;13.50;99.90;;;;;;5062440;28;20040;-75
2022/06/22 06:14:34;;;;;;;19.50;14.18;;;13.50;99.90;;;;;;5042511;28;20515;-75
2022/06/22 06:17:13;;;;;;;19.77;14.48;;;13.70;99.90;;;;;;5056701;28;20052;-75
2022/06/22 06:19:42;;;;;;;18.50;13.25;;;13.60;99.90;;;;;;5039616;28;20409;-75
2022/06/22 06:22:10;;;;;;;23.27;14.05;;;13.70;99.90;;;;;;5042739;28;20033;-75
2022/06/22 06:27:34;;;;;;;21.58;14.80;;;14.10;99.90;;;;;;5065824;28;20071;-75
2022/06/22 06:27:38;;;;;;;18.08;13.88;;;13.90;99.90;;;;;;5058026;28;20036;-75
2022/06/22 06:30:20;;;;;;;19.27;13.63;;;13.90;99.90;;;;;;5049321;28;20064;-74
2022/06/22 06:33:30;;;;;;;17.88;13.07;;;13.90;99.90;;;;;;5040866;28;20161;-75
2022/06/22 06:36:02;;;;;;;20.15;14.43;;;14.00;99.90;;;;;;5050272;28;20044;-75
2022/06/22 06:38:38;;;;;;;25.17;16.13;;;14.10;99.90;;;;;;5037020;28;20123;-75
2022/06/22 06:41:12;;;;;;;21.45;13.77;;;14.30;99.90;;;;;;5060898;28;20036;-75
2022/06/22 06:43:54;;;;;;;21.65;14.00;;;14.20;99.90;;;;;;5060944;28;20535;-75
2022/06/22 06:46:28;;;;;;;20.58;13.85;;;14.40;99.90;;;;;;5051072;28;20101;-75
2022/06/22 06:49:15;;;;;;;22.02;15.10;;;14.30;99.90;;;;;;5049905;28;20485;-75
2022/06/22 06:51:47;;;;;;;21.25;14.20;;;14.30;99.90;;;;;;5050174;28;20116;-75
2022/06/22 06:54:23;;;;;;;23.23;13.50;;;14.40;99.90;;;;;;5053145;28;20044;-75
2022/06/22 06:56:58;;;;;;;21.75;14.25;;;14.60;99.90;;;;;;5050491;28;20041;-75
2022/06/22 06:59:27;;;;;;;20.10;13.43;;;14.50;99.90;;;;;;5051951;28;20113;-75
2022/06/22 07:01:53;;;;;;;23.05;14.30;;;14.50;99.90;;;;;;5057388;28;20039;-75
2022/06/22 07:04:21;;;;;;;22.70;13.40;;;14.60;99.90;;;;;;5047104;28;20036;-75
2022/06/22 07:06:47;;;;;;;20.08;13.07;;;14.70;99.90;;;;;;5048700;28;20489;-76
2022/06/22 07:09:28;;;;;;;18.95;12.85;;;14.60;99.90;;;;;;5057695;28;20083;-76
2022/06/22 07:11:59;;;;;;;18.58;12.77;;;14.80;99.90;;;;;;5050424;28;20037;-76
2022/06/22 07:14:31;;;;;;;17.48;12.73;;;14.80;99.90;;;;;;5060478;28;20072;-76
2022/06/22 07:17:02;;;;;;;20.80;13.98;;;15.00;99.90;;;;;;5045140;28;20042;-76
2022/06/22 07:19:34;;;;;;;23.13;14.23;;;14.80;99.90;;;;;;5050863;28;20041;-76
2022/06/22 07:22:12;;;;;;;;;;;14.90;99.90;;;;;;5053362;28;20312;-76
2022/06/22 07:24:54;;;;;;;17.23;13.02;;;15.00;99.90;;;;;;5063940;28;19920;-76
2022/06/22 07:27:46;;;;;;;19.92;12.95;;;15.00;99.90;;;;;;5055782;28;20067;-76
2022/06/22 07:30:35;;;;;;;19.47;12.37;;;15.10;99.90;;;;;;5051015;28;20048;-76
2022/06/22 07:33:14;;;;;;;16.63;12.15;;;15.20;99.90;;;;;;5051509;28;20150;-76
2022/06/22 07:35:42;;;;;;;16.90;11.80;;;15.20;99.90;;;;;;5054536;28;20128;-76
2022/06/22 07:38:35;;;;;;;17.75;11.63;;;15.30;99.90;;;;;;5052398;28;20052;-77
2022/06/22 07:41:20;;;;;;;16.67;11.00;;;15.30;99.90;;;;;;5046890;28;20517;-76
2022/06/22 07:43:58;;;;;;;13.65;10.10;;;15.40;99.90;;;;;;5052421;28;20076;-76
2022/06/22 07:46:43;;;;;;;13.77;9.80;;;15.50;99.90;;;;;;5047973;28;20792;-76
2022/06/22 07:49:36;;;;;;;15.98;9.95;;;15.60;99.90;;;;;;5065279;28;20041;-76
2022/06/22 07:52:06;;;;;;;15.18;9.38;;;15.70;99.90;;;;;;5055736;28;20071;-76
2022/06/22 07:54:55;;;;;;;18.67;10.25;;;15.70;99.90;;;;;;5053969;28;20080;-75
2022/06/22 07:57:34;;;;;;;15.23;9.75;;;15.80;99.90;;;;;;5048018;28;20043;-76
2022/06/22 08:00:12;;;;;;;15.15;8.93;;;16.00;99.90;;;;;;5053219;28;20041;-76
2022/06/22 08:03:14;;;;;;;16.08;8.00;;;16.00;99.90;;;;;;5062351;28;20044;-76
2022/06/22 08:05:43;;;;;;;13.75;10.05;;;16.10;99.90;;;;;;5056685;28;20052;-76
2022/06/22 08:08:21;;;;;;;13.48;8.93;;;16.20;99.90;;;;;;5061461;28;20037;-76
2022/06/22 08:10:55;;;;;;;12.07;8.73;;;16.30;99.90;;;;;;5049455;28;20045;-77
2022/06/22 08:13:25;;;;;;;15.88;9.02;;;16.30;99.90;;;;;;5060648;28;20037;-76
2022/06/22 08:15:59;;;;;;;10.70;8.50;;;16.40;99.90;;;;;;5050239;28;20133;-76
2022/06/22 08:18:26;;;;;;;13.93;9.45;;;16.60;99.90;;;;;;5053338;28;20068;-76
2022/06/22 08:20:53;;;;;;;14.88;9.02;;;16.70;99.90;;;;;;5054125;28;20049;-76
2022/06/22 08:23:33;;;;;;;15.50;9.90;;;16.90;99.90;;;;;;5064230;28;20119;-76
2022/06/22 08:26:02;;;;;;;15.52;9.85;;;17.10;99.90;;;;;;5055216;28;20041;-76
2022/06/22 08:28:31;;;;;;;19.10;10.90;;;17.40;99.90;;;;;;5063568;28;20507;-76
2022/06/22 08:30:57;;;;;;;11.85;8.05;;;17.80;99.90;;;;;;5062067;28;20047;-76
2022/06/22 08:33:33;;;;;;;11.50;7.38;;;18.10;99.90;;;;;;5070119;28;20115;-76
2022/06/22 08:36:06;;;;;;;11.10;7.07;;;18.40;99.90;;;;;;5044677;28;20041;-76
2022/06/22 08:38:45;;;;;;;9.00;6.53;;;18.70;99.90;;;;;;5064521;28;20040;-77
2022/06/22 08:41:20;;;;;;;8.68;5.28;;;19.00;99.90;;;;;;5064024;28;20052;-76
2022/06/22 08:44:13;;;;;;;9.43;4.75;;;19.30;99.90;;;;;;5048211;28;20063;-76
2022/06/22 08:47:07;;;;;;;8.55;4.63;;;19.60;99.30;;;;;;5044092;28;20033;-76
2022/06/22 08:49:43;;;;;;;9.38;4.65;;;19.90;98.30;;;;;;5052969;28;20170;-76
2022/06/22 08:52:46;;;;;;;6.25;4.15;;;20.10;98.80;;;;;;5048292;28;20402;-76
2022/06/22 08:55:27;;;;;;;8.45;4.07;;;20.50;96.40;;;;;;5040649;28;20091;-77
2022/06/22 08:58:15;;;;;;;8.73;4.28;;;20.70;96.70;;;;;;5058321;28;20042;-77
2022/06/22 09:01:02;;;;;;;9.15;4.47;;;20.90;94.60;;;;;;5053621;28;20063;-77
2022/06/22 09:03:52;;;;;;;6.43;3.80;;;21.10;93.30;;;;;;5051575;28;20090;-77
2022/06/22 09:06:26;;;;;;;7.45;3.55;;;21.30;93.40;;;;;;5057706;28;20094;-77
2022/06/22 09:09:26;;;;;;;7.43;2.90;;;21.50;92.00;;;;;;5039105;28;20033;-77
2022/06/22 09:12:10;;;;;;;6.60;3.08;;;21.60;88.50;;;;;;5058300;28;20120;-77
2022/06/22 09:14:45;;;;;;;6.18;3.47;;;21.70;88.70;;;;;;5057404;28;20531;-77
2022/06/22 09:17:13;;;;;;;5.45;2.70;;;21.80;84.20;;;;;;5049670;28;20072;-77
2022/06/22 09:20:14;;;;;;;4.10;2.42;;;21.80;88.80;;;;;;5060870;28;20044;-77
2022/06/22 09:22:47;;;;;;;4.03;2.20;;;22.20;84.50;;;;;;5057921;28;20059;-77
2022/06/22 09:25:30;;;;;;;2.92;2.00;;;22.20;86.20;;;;;;5065177;28;20049;-77
2022/06/22 09:28:11;;;;;;;3.40;1.90;;;22.40;80.80;;;;;;5064738;28;20072;-78
2022/06/22 09:31:13;;;;;;;4.43;1.83;;;22.60;80.20;;;;;;5058204;28;20041;-77
2022/06/22 09:33:57;;;;;;;2.78;1.38;;;22.80;75.50;;;;;;5056432;28;20416;-77
2022/06/22 09:36:29;;;;;;;2.35;1.38;;;23.00;72.40;;;;;;5047796;28;20037;-77
2022/06/22 09:39:03;;;;;;;2.65;1.20;;;23.20;75.10;;;;;;5052783;28;20489;-77
2022/06/22 09:41:35;;;;;;;1.92;1.25;;;23.40;74.10;;;;;;5052760;28;20485;-77
2022/06/22 09:44:00;;;;;;;2.40;1.20;;;23.60;71.70;;;;;;5058226;28;20052;-77
2022/06/22 09:46:29;;;;;;;2.42;1.20;;;23.60;69.60;;;;;;5064634;28;20505;-77
2022/06/22 09:49:15;;;;;;;1.98;1.30;;;23.60;66.80;;;;;;5061275;28;20044;-77
2022/06/22 09:51:54;;;;;;;1.98;1.15;;;23.70;68.50;;;;;;5030165;28;20041;-77
2022/06/22 09:57:44;;;;;;;0.98;0.90;;;23.90;62.10;;;;;;5048635;28;20047;-77
2022/06/22 10:00:29;;;;;;;1.95;1.00;;;24.00;61.00;;;;;;5047806;28;20409;-77
2022/06/22 10:03:31;;;;;;;3.30;0.93;;;24.20;57.90;;;;;;5040155;28;20103;-77
2022/06/22 10:05:59;;;;;;;3.03;1.20;;;24.30;57.70;;;;;;5057694;28;20051;-77
2022/06/22 10:09:03;;;;;;;1.00;1.00;;;24.40;61.00;;;;;;5060183;28;20532;-77
2022/06/22 10:11:47;;;;;;;2.13;1.30;;;24.60;58.10;;;;;;5031943;28;20033;-77
2022/06/22 10:14:33;;;;;;;2.10;1.30;;;24.70;60.90;;;;;;5063726;28;20044;-77
2022/06/22 10:17:10;;;;;;;2.45;1.58;;;24.80;59.00;;;;;;5050123;28;20041;-77
2022/06/22 10:19:48;;;;;;;2.70;1.48;;;25.00;59.80;;;;;;5062731;28;20103;-77
2022/06/22 10:22:22;;;;;;;3.78;1.40;;;25.10;58.10;;;;;;5059910;28;20464;-77
2022/06/22 10:25:17;;;;;;;2.58;1.60;;;25.10;57.50;;;;;;5065883;28;20072;-77
2022/06/22 10:28:18;;;;;;;2.03;1.20;;;24.90;57.90;;;;;;5039598;28;20052;-77
2022/06/22 10:30:58;;;;;;;1.77;1.30;;;25.00;57.90;;;;;;5059032;28;20043;-77
2022/06/22 10:33:36;;;;;;;2.92;1.23;;;25.10;59.00;;;;;;5033166;28;20078;-77
2022/06/22 10:36:26;;;;;;;3.33;1.20;;;25.20;56.30;;;;;;5056614;28;20056;-77
2022/06/22 10:39:17;;;;;;;3.30;1.63;;;25.40;54.00;;;;;;5055713;28;20485;-76
2022/06/22 10:45:28;;;;;;;3.40;1.50;;;25.60;56.20;;;;;;5058636;28;20178;-76
2022/06/22 10:48:06;;;;;;;3.13;1.58;;;25.80;55.50;;;;;;5055980;28;20124;-76
2022/06/22 10:51:09;;;;;;;2.92;1.90;;;25.80;57.20;;;;;;5053988;28;20040;-76
2022/06/22 10:53:38;;;;;;;3.05;1.60;;;26.00;54.70;;;;;;5055833;28;20509;-76
2022/06/22 10:56:43;;;;;;;2.47;1.63;;;26.10;56.00;;;;;;5045337;28;20044;-76
2022/06/22 10:59:15;;;;;;;3.35;1.80;;;26.10;54.00;;;;;;5037620;28;20052;-76
2022/06/22 11:02:08;;;;;;;4.85;1.85;;;25.90;54.20;;;;;;5054060;28;20287;-76
2022/06/22 11:05:09;;;;;;;2.80;1.70;;;25.90;54.70;;;;;;5057372;28;20041;-76
2022/06/22 11:07:54;;;;;;;;;;;26.00;54.00;;;;;;5049985;28;20044;-76
2022/06/22 11:10:34;;;;;;;7.25;1.95;;;26.10;52.70;;;;;;5038509;28;20003;-75
2022/06/22 11:13:19;;;;;;;3.95;1.80;;;26.20;54.60;;;;;;5050528;28;20044;-75
2022/06/22 11:16:18;;;;;;;4.30;1.70;;;26.30;52.50;;;;;;5061576;28;20189;-75
2022/06/22 11:19:15;;;;;;;3.65;1.88;;;26.40;53.40;;;;;;5020308;28;20060;-76
2022/06/22 11:22:10;;;;;;;3.20;1.55;;;26.50;53.50;;;;;;5025906;28;20044;-76
2022/06/22 11:24:41;;;;;;;2.25;1.55;;;26.60;54.10;;;;;;5063108;28;20097;-76
2022/06/22 11:30:55;;;;;;;1.40;1.30;;;26.80;50.50;;;;;;5050301;28;20099;-76
2022/06/22 11:33:44;;;;;;;4.13;1.40;;;26.80;49.50;;;;;;5044978;28;20052;-76
2022/06/22 11:36:54;;;;;;;2.33;1.40;;;26.90;49.70;;;;;;5050765;28;20493;-76
2022/06/22 11:39:43;;;;;;;3.58;1.35;;;27.00;50.00;;;;;;5014400;28;20539;-76
2022/06/22 11:42:32;;;;;;;1.98;1.38;;;26.90;49.80;;;;;;5070862;28;20049;-76
2022/06/22 11:45:52;;;;;;;3.83;1.60;;;27.00;49.70;;;;;;5052934;28;20045;-76
2022/06/22 11:48:48;;;;;;;2.67;1.60;;;27.10;50.10;;;;;;5059974;28;20119;-76
2022/06/22 11:51:50;;;;;;;4.80;2.05;;;27.20;49.50;;;;;;5060500;28;20068;-76
2022/06/22 11:54:28;;;;;;;2.92;1.70;;;27.30;50.80;;;;;;5057261;28;20047;-76
2022/06/22 11:56:59;;;;;;;5.18;1.70;;;27.40;51.20;;;;;;5052349;28;20425;-76
2022/06/22 11:59:40;;;;;;;2.53;1.45;;;27.40;51.30;;;;;;5057565;28;20517;-76
2022/06/22 12:02:39;;;;;;;2.10;1.73;;;27.50;50.70;;;;;;5068976;28;20044;-76
2022/06/22 12:05:08;;;;;;;2.30;1.60;;;27.60;49.50;;;;;;5062738;28;20045;-77
2022/06/22 12:07:56;;;;;;;3.35;1.70;;;27.50;49.90;;;;;;5058790;28;20039;-76
2022/06/22 12:10:31;;;;;;;4.63;2.63;;;27.50;49.30;;;;;;4997720;28;20056;-77
2022/06/22 12:13:20;;;;;;;2.35;1.65;;;27.50;50.00;;;;;;5055966;28;20405;-77
2022/06/22 12:16:21;;;;;;;3.50;1.67;;;27.60;49.90;;;;;;5039301;28;20044;-76
2022/06/22 12:19:06;;;;;;;5.53;1.70;;;27.60;49.40;;;;;;5064758;28;20045;-76
2022/06/22 12:22:19;;;;;;;2.08;1.52;;;27.70;49.20;;;;;;5054702;28;20350;-76
2022/06/22 12:25:06;;;;;;;4.10;1.63;;;27.60;49.30;;;;;;5060932;28;20041;-76
2022/06/22 12:27:41;;;;;;;2.55;1.40;;;27.60;48.90;;;;;;5054826;28;20037;-76
2022/06/22 12:30:26;;;;;;;2.22;1.40;;;27.70;49.40;;;;;;5066298;28;20041;-76
2022/06/22 12:33:08;;;;;;;3.65;1.73;;;27.70;48.80;;;;;;5055717;28;20442;-75
2022/06/22 12:35:56;;;;;;;3.38;1.60;;;27.70;49.10;;;;;;5060749;28;20037;-76
2022/06/22 12:38:29;;;;;;;2.70;1.50;;;27.70;48.80;;;;;;5030892;28;20037;-76
2022/06/22 12:41:09;;;;;;;3.97;1.73;;;27.70;49.00;;;;;;5055118;28;20072;-76
2022/06/22 12:44:00;;;;;;;3.55;1.73;;;27.80;48.10;;;;;;5052145;28;20044;-76
2022/06/22 12:46:38;;;;;;;2.07;1.60;;;27.70;47.60;;;;;;5064473;28;20408;-76
2022/06/22 12:49:29;;;;;;;3.17;1.50;;;27.40;45.50;;;;;;5043935;28;20118;-76
2022/06/22 12:52:10;;;;;;;1.65;1.40;;;27.40;48.00;;;;;;5055559;28;20043;-77
2022/06/22 12:54:49;;;;;;;3.20;1.83;;;27.40;48.20;;;;;;5056683;28;20042;-77
2022/06/22 12:57:46;;;;;;;4.03;1.67;;;27.60;48.30;;;;;;5040246;28;20473;-76
2022/06/22 13:00:21;;;;;;;4.38;1.30;;;27.60;48.30;;;;;;5051250;28;20072;-77
2022/06/22 13:02:49;;;;;;;3.25;1.63;;;27.50;47.80;;;;;;5034347;28;20041;-77
2022/06/22 13:05:20;;;;;;;2.45;1.58;;;27.50;47.70;;;;;;5054147;28;21443;-77
2022/06/22 13:07:52;;;;;;;3.17;1.40;;;27.60;47.90;;;;;;5054911;28;20033;-77
2022/06/22 13:10:21;;;;;;;2.72;1.55;;;27.70;48.20;;;;;;5058590;28;20029;-77
2022/06/22 13:13:14;;;;;;;2.83;1.42;;;27.80;48.30;;;;;;5057795;28;20037;-77
2022/06/22 13:16:09;;;;;;;4.30;1.90;;;27.90;48.30;;;;;;5040936;28;20069;-77
2022/06/22 13:18:38;;;;;;;2.47;1.52;;;27.80;48.40;;;;;;5040235;28;20054;-76
2022/06/22 13:21:33;;;;;;;3.40;1.80;;;27.80;48.50;;;;;;5060476;28;20123;-76
2022/06/22 13:24:26;;;;;;;2.38;1.48;;;27.90;48.70;;;;;;5028257;28;20514;-76
2022/06/22 13:27:26;;;;;;;2.75;1.50;;;27.90;48.90;;;;;;5055768;28;20043;-76
2022/06/22 13:30:15;;;;;;;2.53;1.70;;;28.00;49.00;;;;;;5045397;28;20079;-77
2022/06/22 13:32:45;;;;;;;4.22;1.90;;;28.00;48.40;;;;;;5045103;28;20049;-76
2022/06/22 13:35:25;;;;;;;5.13;1.90;;;28.00;48.00;;;;;;5052757;28;20044;-76
2022/06/22 13:38:12;;;;;;;4.60;1.80;;;28.00;46.80;;;;;;5051330;28;20413;-77
2022/06/22 13:41:10;;;;;;;2.08;1.52;;;27.80;48.00;;;;;;5050800;28;20102;-77
2022/06/22 13:43:51;;;;;;;3.20;1.60;;;27.80;47.90;;;;;;5050294;28;20049;-77
2022/06/22 13:46:35;;;;;;;3.35;1.65;;;27.90;47.70;;;;;;5058260;28;20048;-77
2022/06/22 13:49:13;;;;;;;3.97;1.55;;;27.80;47.30;;;;;;5053515;28;20037;-77
2022/06/22 13:52:14;;;;;;;2.50;1.58;;;27.90;46.70;;;;;;5056852;28;20124;-77
2022/06/22 13:54:53;;;;;;;4.82;1.60;;;27.90;46.10;;;;;;5053967;28;20140;-76
2022/06/22 13:57:31;;;;;;;2.38;1.40;;;27.90;46.50;;;;;;5053542;28;20703;-77